createdAt,value
2019-04-22T00:01:30.777Z,11.91
2019-04-22T00:04:03.644Z,11.24
2019-04-22T00:06:51.700Z,11.32
2019-04-22T00:09:28.546Z,11.48
2019-04-22T00:11:53.133Z,11.25
2019-04-22T00:14:17.899Z,11.29
2019-04-22T00:19:32.008Z,11.33
2019-04-22T00:22:00.029Z,10.92
2019-04-22T00:24:26.721Z,10.86
2019-04-22T00:26:59.963Z,10.98
2019-04-22T00:29:42.491Z,10.98
2019-04-22T00:31:59.008Z,11.06
2019-04-22T00:34:27.066Z,11.06
2019-04-22T00:37:01.011Z,11.01
2019-04-22T00:39:37.339Z,10.94
2019-04-22T00:42:06.103Z,10.80
2019-04-22T00:47:07.348Z,10.65
2019-04-22T00:50:06.672Z,10.34
2019-04-22T00:54:39.619Z,10.87
2019-04-22T00:57:12.073Z,10.27
2019-04-22T00:59:40.408Z,10.63
2019-04-22T01:02:08.810Z,10.79
2019-04-22T01:04:39.299Z,10.87
2019-04-22T01:07:09.458Z,10.83
2019-04-22T01:09:40.106Z,10.87
2019-04-22T01:14:41.385Z,10.23
2019-04-22T01:17:09.328Z,10.42
2019-04-22T01:19:46.606Z,9.63
2019-04-22T01:22:17.531Z,10.25
2019-04-22T01:24:42.153Z,10.44
2019-04-22T01:27:09.128Z,10.45
2019-04-22T01:29:39.712Z,10.53
2019-04-22T01:31:56.504Z,10.67
2019-04-22T01:34:40.456Z,9.50
2019-04-22T01:37:14.069Z,9.78
2019-04-22T01:39:50.460Z,10.16
2019-04-22T01:42:15.750Z,10.16
2019-04-22T01:44:50.878Z,9.95
2019-04-22T01:47:25.087Z,9.95
2019-04-22T01:49:57.076Z,10.03
2019-04-22T01:52:23.711Z,10.03
2019-04-22T01:54:54.673Z,10.32
2019-04-22T01:57:27.043Z,10.13
2019-04-22T01:59:45.842Z,10.26
2019-04-22T02:02:30.897Z,10.24
2019-04-22T02:04:59.870Z,10.33
2019-04-22T02:07:32.099Z,10.33
2019-04-22T02:09:57.949Z,10.40
2019-04-22T02:12:30.808Z,10.09
2019-04-22T02:14:59.499Z,10.09
2019-04-22T02:17:33.359Z,10.30
2019-04-22T02:20:07.458Z,10.20
2019-04-22T02:22:41.760Z,10.38
2019-04-22T02:24:58.841Z,10.20
2019-04-22T02:27:40.407Z,10.11
2019-04-22T02:29:58.265Z,10.11
2019-04-22T02:33:03.870Z,10.12
2019-04-22T02:37:35.907Z,10.10
2019-04-22T02:42:51.841Z,9.86
2019-04-22T02:44:58.737Z,9.65
2019-04-22T02:47:36.219Z,9.63
2019-04-22T02:50:06.469Z,9.60
2019-04-22T02:55:10.752Z,9.58
2019-04-22T03:00:19.469Z,9.68
2019-04-22T03:02:50.653Z,9.83
2019-04-22T03:07:42.460Z,9.88
2019-04-22T03:10:29.468Z,9.75
2019-04-22T03:12:37.041Z,8.99
2019-04-22T03:15:07.745Z,8.09
2019-04-22T03:20:11.109Z,8.37
2019-04-22T03:27:56.396Z,8.58
2019-04-22T03:33:05.524Z,9.16
2019-04-22T03:43:02.537Z,9.28
2019-04-22T03:52:56.435Z,9.69
2019-04-22T03:55:26.676Z,9.69
2019-04-22T04:00:25.066Z,9.64
2019-04-22T04:05:35.649Z,9.75
2019-04-22T04:07:57.709Z,9.68
2019-04-22T04:12:56.223Z,9.80
2019-04-22T04:15:23.670Z,9.57
2019-04-22T04:17:56.802Z,9.52
2019-04-22T04:25:37.388Z,9.86
2019-04-22T04:30:30.281Z,9.93
2019-04-22T04:32:58.897Z,10.18
2019-04-22T04:35:30.514Z,10.03
2019-04-22T04:43:05.536Z,10.14
2019-04-22T04:45:41.152Z,10.35
2019-04-22T04:47:54.852Z,9.76
2019-04-22T04:50:26.751Z,9.76
2019-04-22T04:53:09.759Z,9.43
2019-04-22T04:58:13.541Z,10.12
2019-04-22T05:03:02.609Z,10.40
2019-04-22T05:08:00.227Z,9.29
2019-04-22T05:10:47.493Z,9.62
2019-04-22T05:13:10.348Z,10.17
2019-04-22T05:23:00.688Z,10.24
2019-04-22T05:25:28.349Z,10.24
2019-04-22T05:27:57.653Z,10.85
2019-04-22T05:33:18.987Z,10.92
2019-04-22T05:38:04.171Z,9.76
2019-04-22T05:40:40.838Z,9.80
2019-04-22T05:43:03.424Z,10.37
2019-04-22T05:45:34.685Z,10.40
2019-04-22T05:48:02.904Z,10.17
2019-04-22T05:50:29.519Z,10.17
2019-04-22T05:55:36.073Z,10.08
2019-04-22T06:01:05.735Z,10.18
2019-04-22T06:03:20.854Z,9.73
2019-04-22T06:08:13.347Z,10.00
2019-04-22T06:10:45.396Z,10.46
2019-04-22T06:13:04.428Z,10.82
2019-04-22T06:15:37.569Z,10.39
2019-04-22T06:23:25.648Z,11.11
2019-04-22T06:25:59.070Z,11.22
2019-04-22T06:28:35.233Z,11.13
2019-04-22T06:30:57.520Z,11.06
2019-04-22T06:33:26.121Z,11.22
2019-04-22T06:35:56.369Z,12.11
2019-04-22T06:40:54.042Z,12.03
2019-04-22T06:43:22.433Z,12.56
2019-04-22T06:45:51.775Z,11.50
2019-04-22T06:48:33.313Z,11.14
2019-04-22T06:50:56.809Z,12.51
2019-04-22T06:53:31.155Z,12.28
2019-04-22T06:56:12.082Z,12.78
2019-04-22T06:58:30.337Z,12.49
2019-04-22T07:01:19.341Z,12.39
2019-04-22T07:05:59.653Z,13.09
2019-04-22T07:09:03.753Z,13.11
2019-04-22T07:10:56.302Z,13.12
2019-04-22T07:13:34.398Z,13.23
2019-04-22T07:16:00.335Z,13.12
2019-04-22T07:18:38.630Z,13.03
2019-04-22T07:21:01.510Z,13.04
2019-04-22T07:23:34.937Z,12.72
2019-04-22T07:25:58.421Z,13.09
2019-04-22T07:28:22.957Z,13.45
2019-04-22T07:31:08.066Z,14.13
2019-04-22T07:36:27.755Z,14.04
2019-04-22T07:38:31.367Z,13.53
2019-04-22T07:40:59.351Z,13.93
2019-04-22T07:43:56.358Z,14.62
2019-04-22T07:46:10.857Z,14.51
2019-04-22T07:48:38.180Z,14.43
2019-04-22T07:51:07.700Z,14.32
2019-04-22T07:53:34.245Z,14.04
2019-04-22T07:56:05.343Z,14.04
2019-04-22T07:58:39.628Z,14.76
2019-04-22T08:01:08.830Z,14.14
2019-04-22T08:03:47.830Z,13.98
2019-04-22T08:08:38.365Z,14.05
2019-04-22T08:11:23.810Z,13.92
2019-04-22T08:16:10.766Z,14.60
2019-04-22T08:18:39.150Z,15.19
2019-04-22T08:21:09.322Z,15.30
2019-04-22T08:23:46.522Z,15.63
2019-04-22T08:26:04.860Z,15.44
2019-04-22T08:28:47.810Z,15.17
2019-04-22T08:31:14.917Z,14.86
2019-04-22T08:33:46.581Z,15.20
2019-04-22T08:36:18.365Z,15.59
2019-04-22T08:41:28.426Z,14.61
2019-04-22T08:43:57.820Z,15.55
2019-04-22T08:46:27.378Z,15.66
2019-04-22T08:48:57.661Z,15.63
2019-04-22T08:51:25.318Z,15.98
2019-04-22T08:53:59.813Z,15.78
2019-04-22T08:59:03.103Z,15.08
2019-04-22T09:01:27.056Z,15.78
2019-04-22T09:03:58.594Z,16.10
2019-04-22T09:09:00.899Z,16.27
2019-04-22T09:11:35.583Z,16.84
2019-04-22T09:14:02.981Z,16.48
2019-04-22T09:16:33.272Z,16.32
2019-04-22T09:18:59.260Z,16.10
2019-04-22T09:24:06.917Z,15.43
2019-04-22T09:26:36.092Z,15.92
2019-04-22T09:29:04.987Z,16.60
2019-04-22T09:31:28.980Z,16.35
2019-04-22T09:33:59.081Z,16.52
2019-04-22T09:36:44.309Z,16.90
2019-04-22T09:39:00.706Z,16.60
2019-04-22T09:41:31.862Z,16.32
2019-04-22T09:44:02.394Z,16.89
2019-04-22T09:46:36.829Z,16.18
2019-04-22T09:49:06.509Z,17.26
2019-04-22T09:51:36.873Z,16.34
2019-04-22T09:54:17.945Z,16.78
2019-04-22T09:56:37.445Z,17.44
2019-04-22T09:59:04.651Z,17.14
2019-04-22T10:01:38.524Z,17.22
2019-04-22T10:04:08.290Z,17.79
2019-04-22T10:11:37.631Z,17.48
2019-04-22T10:14:28.437Z,17.60
2019-04-22T10:19:11.155Z,17.77
2019-04-22T10:21:46.327Z,17.19
2019-04-22T10:24:09.090Z,17.85
2019-04-22T10:29:14.005Z,18.06
2019-04-22T10:31:46.608Z,17.97
2019-04-22T10:34:02.680Z,17.60
2019-04-22T10:36:17.528Z,17.06
2019-04-22T10:38:46.592Z,18.14
2019-04-22T10:41:16.553Z,18.20
2019-04-22T10:43:47.626Z,18.13
2019-04-22T10:46:16.287Z,18.31
2019-04-22T10:48:46.290Z,18.49
2019-04-22T10:51:16.799Z,18.18
2019-04-22T10:53:45.528Z,18.64
2019-04-22T10:56:14.880Z,18.93
2019-04-22T10:58:44.659Z,19.05
2019-04-22T11:01:13.694Z,19.09
2019-04-22T11:03:43.341Z,19.31
2019-04-22T11:06:12.105Z,18.36
2019-04-22T11:08:50.048Z,18.37
2019-04-22T11:11:25.943Z,18.89
2019-04-22T11:13:42.043Z,18.47
2019-04-22T11:16:11.729Z,18.59
2019-04-22T11:18:41.264Z,19.04
2019-04-22T11:21:09.955Z,18.56
2019-04-22T11:23:38.723Z,18.97
2019-04-22T11:26:08.181Z,19.77
2019-04-22T11:28:38.060Z,19.95
2019-04-22T11:31:08.146Z,18.69
2019-04-22T11:33:36.831Z,18.98
2019-04-22T11:36:06.180Z,19.42
2019-04-22T11:38:40.374Z,18.58
2019-04-22T11:41:07.103Z,19.44
2019-04-22T11:43:36.209Z,19.66
2019-04-22T11:46:05.415Z,19.06
2019-04-22T11:48:34.137Z,19.44
2019-04-22T11:51:04.149Z,19.62
2019-04-22T11:53:34.432Z,19.76
2019-04-22T11:56:04.638Z,20.43
2019-04-22T11:58:33.874Z,20.35
2019-04-22T12:01:06.604Z,19.61
2019-04-22T12:03:35.772Z,19.64
2019-04-22T12:06:05.935Z,19.84
2019-04-22T12:08:35.729Z,19.93
2019-04-22T12:11:06.029Z,20.20
2019-04-22T12:13:35.865Z,20.22
2019-04-22T12:16:05.313Z,20.43
2019-04-22T12:18:35.350Z,20.11
2019-04-22T12:21:05.308Z,20.57
2019-04-22T12:23:34.937Z,20.80
2019-04-22T12:26:09.184Z,20.79
2019-04-22T12:28:35.133Z,20.96
2019-04-22T12:31:03.906Z,21.45
2019-04-22T12:33:32.490Z,21.19
2019-04-22T12:36:02.364Z,20.45
2019-04-22T12:38:31.511Z,21.16
2019-04-22T12:41:04.362Z,20.95
2019-04-22T12:43:31.854Z,21.12
2019-04-22T12:46:02.119Z,20.65
2019-04-22T12:50:32.917Z,20.99
2019-04-22T12:53:04.776Z,21.02
2019-04-22T12:55:30.175Z,20.85
2019-04-22T12:58:00.925Z,21.52
2019-04-22T13:00:30.229Z,21.74
2019-04-22T13:02:58.968Z,21.20
2019-04-22T13:05:29.108Z,21.58
2019-04-22T13:07:57.909Z,20.68
2019-04-22T13:10:40.069Z,20.85
2019-04-22T13:12:56.991Z,21.27
2019-04-22T13:15:28.950Z,21.17
2019-04-22T13:18:05.996Z,21.22
2019-04-22T13:20:28.259Z,21.16
2019-04-22T13:22:57.087Z,20.25
2019-04-22T13:25:28.051Z,20.64
2019-04-22T13:27:57.486Z,20.20
2019-04-22T13:30:28.282Z,20.55
2019-04-22T13:32:57.043Z,20.81
2019-04-22T13:35:26.208Z,20.87
2019-04-22T13:37:57.309Z,20.71
2019-04-22T13:40:26.044Z,21.51
2019-04-22T13:42:55.555Z,21.30
2019-04-22T13:48:11.492Z,21.16
2019-04-22T13:53:40.954Z,21.39
2019-04-22T13:55:53.250Z,21.76
2019-04-22T13:58:08.687Z,21.15
2019-04-22T14:00:34.530Z,20.71
2019-04-22T14:03:22.399Z,20.24
2019-04-22T14:05:53.036Z,19.63
2019-04-22T14:08:22.989Z,19.77
2019-04-22T14:10:52.489Z,19.07
2019-04-22T14:13:21.695Z,20.01
2019-04-22T14:15:50.982Z,19.83
2019-04-22T14:18:21.061Z,18.81
2019-04-22T14:20:51.156Z,19.14
2019-04-22T14:23:20.513Z,19.31
2019-04-22T14:25:50.682Z,19.95
2019-04-22T14:28:21.991Z,19.62
2019-04-22T14:30:50.602Z,19.44
2019-04-22T14:33:20.291Z,19.97
2019-04-22T14:35:49.939Z,20.57
2019-04-22T14:38:18.664Z,19.28
2019-04-22T14:40:48.185Z,19.66
2019-04-22T14:43:47.792Z,19.83
2019-04-22T14:46:14.813Z,19.36
2019-04-22T14:48:46.449Z,18.74
2019-04-22T14:51:07.144Z,19.19
2019-04-22T14:53:41.066Z,19.31
2019-04-22T14:55:50.363Z,19.25
2019-04-22T14:58:19.253Z,19.53
2019-04-22T15:00:49.185Z,19.62
2019-04-22T15:03:19.654Z,19.40
2019-04-22T15:05:48.340Z,19.42
2019-04-22T15:08:17.336Z,19.23
2019-04-22T15:10:46.171Z,18.93
2019-04-22T15:13:15.565Z,19.07
2019-04-22T15:16:03.053Z,19.22
2019-04-22T15:18:39.725Z,19.79
2019-04-22T15:21:16.565Z,18.95
2019-04-22T15:23:46.811Z,19.58
2019-04-22T15:26:16.647Z,19.53
2019-04-22T15:28:45.355Z,19.82
2019-04-22T15:31:15.200Z,19.95
2019-04-22T15:33:48.016Z,20.01
2019-04-22T15:36:14.235Z,18.85
2019-04-22T15:38:42.890Z,18.45
2019-04-22T15:41:12.512Z,18.59
2019-04-22T15:43:41.609Z,18.59
2019-04-22T15:46:11.626Z,18.50
2019-04-22T15:48:42.054Z,18.96
2019-04-22T15:51:11.059Z,19.24
2019-04-22T15:53:39.916Z,19.25
2019-04-22T15:56:08.725Z,18.36
2019-04-22T15:58:37.600Z,18.56
2019-04-22T16:01:15.114Z,18.25
2019-04-22T16:03:36.926Z,17.99
2019-04-22T16:06:06.112Z,17.23
2019-04-22T16:08:37.332Z,17.78
2019-04-22T16:11:06.149Z,17.08
2019-04-22T16:13:38.046Z,17.76
2019-04-22T16:16:06.774Z,18.00
2019-04-22T16:18:36.124Z,17.95
2019-04-22T16:21:05.016Z,17.23
2019-04-22T16:23:36.503Z,17.88
2019-04-22T16:26:07.601Z,17.42
2019-04-22T16:28:37.649Z,16.82
2019-04-22T16:31:07.221Z,16.91
2019-04-22T16:33:39.681Z,17.85
2019-04-22T16:36:07.172Z,17.32
2019-04-22T16:38:37.324Z,17.80
2019-04-22T16:41:06.637Z,17.89
2019-04-22T16:43:36.465Z,17.96
2019-04-22T16:46:05.671Z,17.18
2019-04-22T16:48:35.861Z,17.51
2019-04-22T16:51:04.506Z,16.88
2019-04-22T16:53:33.132Z,17.01
2019-04-22T16:56:02.745Z,16.88
2019-04-22T16:58:32.609Z,16.10
2019-04-22T17:01:02.814Z,16.68
2019-04-22T17:03:40.521Z,16.18
2019-04-22T17:06:11.801Z,16.26
2019-04-22T17:08:40.575Z,16.61
2019-04-22T17:11:09.795Z,16.43
2019-04-22T17:13:40.032Z,16.13
2019-04-22T17:16:09.829Z,16.37
2019-04-22T17:18:39.394Z,16.46
2019-04-22T17:21:10.443Z,16.48
2019-04-22T17:23:38.616Z,15.97
2019-04-22T17:26:08.424Z,15.91
2019-04-22T17:28:37.483Z,16.26
2019-04-22T17:31:06.654Z,16.07
2019-04-22T17:33:36.999Z,15.37
2019-04-22T17:36:07.671Z,15.29
2019-04-22T17:38:45.403Z,15.56
2019-04-22T17:41:21.172Z,15.22
2019-04-22T17:44:02.149Z,15.49
2019-04-22T17:46:40.163Z,15.28
2019-04-22T17:49:41.767Z,15.78
2019-04-22T17:54:50.294Z,15.17
2019-04-22T17:57:21.884Z,15.06
2019-04-22T17:59:53.500Z,14.62
2019-04-22T18:02:23.887Z,15.39
2019-04-22T18:04:45.404Z,15.44
2019-04-22T18:07:29.645Z,15.83
2019-04-22T18:12:35.734Z,14.81
2019-04-22T18:14:59.332Z,14.76
2019-04-22T18:17:32.399Z,14.64
2019-04-22T18:19:54.594Z,15.25
2019-04-22T18:22:21.854Z,14.75
2019-04-22T18:24:55.970Z,15.30
2019-04-22T18:27:38.871Z,14.59
2019-04-22T18:29:59.143Z,14.93
2019-04-22T18:32:21.777Z,13.97
2019-04-22T18:34:51.154Z,14.51
2019-04-22T18:37:25.198Z,15.01
2019-04-22T18:40:02.216Z,14.62
2019-04-22T18:42:27.123Z,14.69
2019-04-22T18:45:21.632Z,15.11
2019-04-22T18:47:24.893Z,14.16
2019-04-22T18:49:56.678Z,14.25
2019-04-22T18:52:47.003Z,14.39
2019-04-22T18:55:22.628Z,14.56
2019-04-22T18:58:02.646Z,14.86
2019-04-22T19:00:23.308Z,14.88
2019-04-22T19:02:59.363Z,15.05
2019-04-22T19:05:40.093Z,14.84
2019-04-22T19:15:54.224Z,15.32
2019-04-22T19:18:24.539Z,15.46
2019-04-22T19:20:52.006Z,14.19
2019-04-22T19:23:25.842Z,14.79
2019-04-22T19:25:42.151Z,14.97
2019-04-22T19:28:23.863Z,14.99
2019-04-22T19:30:56.345Z,14.64
2019-04-22T19:33:23.959Z,14.33
2019-04-22T19:35:49.120Z,14.88
2019-04-22T19:38:15.618Z,15.07
2019-04-22T19:41:03.130Z,14.67
2019-04-22T19:43:22.925Z,14.22
2019-04-22T19:45:55.071Z,14.24
2019-04-22T19:48:32.958Z,14.77
2019-04-22T19:50:58.934Z,14.32
2019-04-22T19:53:29.693Z,14.82
2019-04-22T19:55:49.737Z,15.17
2019-04-22T19:58:20.149Z,15.11
2019-04-22T20:00:52.026Z,14.07
2019-04-22T20:03:42.684Z,14.21
2019-04-22T20:06:09.980Z,14.31
2019-04-22T20:08:45.966Z,14.20
2019-04-22T20:11:17.050Z,14.19
2019-04-22T20:13:42.849Z,13.16
2019-04-22T20:16:03.455Z,13.96
2019-04-22T20:18:50.210Z,14.26
2019-04-22T20:21:17.957Z,14.71
2019-04-22T20:23:38.297Z,13.95
2019-04-22T20:26:07.537Z,13.80
2019-04-22T20:28:51.379Z,13.79
2019-04-22T20:31:14.129Z,13.99
2019-04-22T20:33:51.375Z,13.60
2019-04-22T20:36:26.911Z,13.06
2019-04-22T20:38:46.648Z,13.59
2019-04-22T20:41:13.537Z,14.26
2019-04-22T20:43:52.810Z,13.75
2019-04-22T20:46:19.032Z,14.19
2019-04-22T20:48:50.270Z,14.01
2019-04-22T20:51:14.008Z,14.16
2019-04-22T20:53:48.001Z,14.19
2019-04-22T20:56:14.557Z,14.14
2019-04-22T20:58:54.695Z,14.06
2019-04-22T21:01:11.672Z,14.16
2019-04-22T21:03:40.792Z,14.08
2019-04-22T21:06:19.187Z,13.27
2019-04-22T21:08:57.994Z,13.10
2019-04-22T21:11:19.338Z,13.61
2019-04-22T21:13:48.184Z,14.26
2019-04-22T21:16:21.599Z,13.61
2019-04-22T21:18:47.340Z,14.18
2019-04-22T21:21:25.164Z,13.75
2019-04-22T21:23:47.665Z,13.18
2019-04-22T21:26:27.450Z,13.13
2019-04-22T21:28:53.756Z,13.23
2019-04-22T21:31:32.368Z,12.90
2019-04-22T21:33:50.308Z,13.48
2019-04-22T21:36:31.263Z,13.73
2019-04-22T21:38:53.215Z,13.67
2019-04-22T21:41:20.332Z,13.81
2019-04-22T21:43:53.661Z,13.74
2019-04-22T21:46:27.907Z,13.64
2019-04-22T21:49:02.900Z,13.64
2019-04-22T21:51:34.535Z,14.11
2019-04-22T21:54:04.245Z,13.59
2019-04-22T21:56:41.151Z,13.46
2019-04-22T21:59:07.851Z,13.66
2019-04-22T22:01:51.231Z,14.29
2019-04-22T22:04:15.378Z,14.36
2019-04-22T22:06:37.270Z,13.70
2019-04-22T22:09:15.538Z,13.02
2019-04-22T22:11:38.632Z,12.83
2019-04-22T22:14:11.736Z,13.44
2019-04-22T22:16:37.490Z,13.62
2019-04-22T22:19:11.703Z,13.82
2019-04-22T22:21:55.454Z,13.76
2019-04-22T22:24:18.844Z,13.78
2019-04-22T22:26:46.552Z,13.28
2019-04-22T22:29:24.656Z,13.94
2019-04-22T22:31:47.011Z,14.19
2019-04-22T22:34:17.635Z,13.78
2019-04-22T22:36:40.850Z,13.40
2019-04-22T22:39:07.556Z,12.99
2019-04-22T22:41:26.053Z,12.73
2019-04-22T22:44:03.278Z,13.00
2019-04-22T22:46:34.163Z,12.77
2019-04-22T22:49:18.558Z,13.03
2019-04-22T22:52:26.174Z,13.13
2019-04-22T22:54:17.593Z,13.40
2019-04-22T22:56:55.736Z,13.47
2019-04-22T22:59:18.117Z,13.86
2019-04-22T23:04:23.152Z,12.89
2019-04-22T23:06:53.359Z,12.01
2019-04-22T23:09:22.501Z,12.20
2019-04-22T23:12:04.080Z,11.73
2019-04-22T23:14:21.959Z,12.69
2019-04-22T23:16:39.776Z,13.03
2019-04-22T23:19:06.669Z,11.94
2019-04-22T23:21:39.696Z,12.24
2019-04-22T23:24:21.286Z,12.17
2019-04-22T23:26:54.057Z,12.25
2019-04-22T23:29:25.376Z,11.64
2019-04-22T23:32:01.668Z,11.49
2019-04-22T23:34:32.841Z,11.94
2019-04-22T23:37:18.800Z,11.94
2019-04-22T23:40:01.677Z,12.12
2019-04-22T23:42:39.773Z,12.27
2019-04-22T23:44:56.315Z,12.67
2019-04-22T23:47:21.090Z,12.65
2019-04-22T23:49:56.087Z,12.65
2019-04-22T23:52:40.271Z,12.77
2019-04-22T23:55:11.525Z,12.08
2019-04-22T23:57:42.172Z,12.11
